sensor_id;sensor_type;location;lat;lon;timestamp;P1;durP1;ratioP1;P2;durP2;ratioP2
77012;SDS011;67260;53.130;17.982;2024-02-28T00:00:44;29.90;;;14.10;;
77012;SDS011;67260;53.130;17.982;2024-02-28T00:06:43;28.70;;;13.90;;
77012;SDS011;67260;53.130;17.982;2024-02-28T00:09:23;26.90;;;12.50;;
77012;SDS011;67260;53.130;17.982;2024-02-28T00:12:06;31.50;;;13.80;;
77012;SDS011;67260;53.130;17.982;2024-02-28T00:14:51;32.50;;;13.90;;
77012;SDS011;67260;53.130;17.982;2024-02-28T00:17:26;30.60;;;12.90;;
77012;SDS011;67260;53.130;17.982;2024-02-28T00:20:08;31.70;;;13.20;;
77012;SDS011;67260;53.130;17.982;2024-02-28T00:23:41;34.20;;;13.80;;
77012;SDS011;67260;53.130;17.982;2024-02-28T00:26:08;32.10;;;14.20;;
77012;SDS011;67260;53.130;17.982;2024-02-28T00:28:34;35.10;;;13.60;;
77012;SDS011;67260;53.130;17.982;2024-02-28T00:31:01;32.60;;;13.50;;
77012;SDS011;67260;53.130;17.982;2024-02-28T00:33:28;36.00;;;14.30;;
77012;SDS011;67260;53.130;17.982;2024-02-28T00:35:57;33.00;;;14.50;;
77012;SDS011;67260;53.130;17.982;2024-02-28T00:38:24;33.60;;;14.30;;
77012;SDS011;67260;53.130;17.982;2024-02-28T00:40:55;34.70;;;14.10;;
77012;SDS011;67260;53.130;17.982;2024-02-28T00:43:27;32.40;;;14.30;;
77012;SDS011;67260;53.130;17.982;2024-02-28T00:45:58;38.70;;;15.00;;
77012;SDS011;67260;53.130;17.982;2024-02-28T00:51:00;33.60;;;13.80;;
77012;SDS011;67260;53.130;17.982;2024-02-28T00:53:33;33.50;;;14.30;;
77012;SDS011;67260;53.130;17.982;2024-02-28T00:56:07;37.10;;;14.70;;
77012;SDS011;67260;53.130;17.982;2024-02-28T00:58:48;38.60;;;14.20;;
77012;SDS011;67260;53.130;17.982;2024-02-28T01:03:48;37.80;;;14.50;;
77012;SDS011;67260;53.130;17.982;2024-02-28T01:06:20;37.50;;;14.40;;
77012;SDS011;67260;53.130;17.982;2024-02-28T01:12:01;44.50;;;16.30;;
77012;SDS011;67260;53.130;17.982;2024-02-28T01:14:31;42.10;;;15.80;;
77012;SDS011;67260;53.130;17.982;2024-02-28T01:16:59;46.10;;;15.30;;
77012;SDS011;67260;53.130;17.982;2024-02-28T01:19:38;48.80;;;15.80;;
77012;SDS011;67260;53.130;17.982;2024-02-28T01:22:08;44.30;;;16.20;;
77012;SDS011;67260;53.130;17.982;2024-02-28T01:24:34;48.10;;;16.10;;
77012;SDS011;67260;53.130;17.982;2024-02-28T01:27:13;47.70;;;17.00;;
77012;SDS011;67260;53.130;17.982;2024-02-28T01:29:39;47.70;;;17.10;;
77012;SDS011;67260;53.130;17.982;2024-02-28T01:34:43;42.60;;;15.10;;
77012;SDS011;67260;53.130;17.982;2024-02-28T01:37:09;40.40;;;14.80;;
77012;SDS011;67260;53.130;17.982;2024-02-28T01:39:35;44.90;;;17.70;;
77012;SDS011;67260;53.130;17.982;2024-02-28T01:42:02;39.50;;;14.70;;
77012;SDS011;67260;53.130;17.982;2024-02-28T01:44:31;45.20;;;15.90;;
77012;SDS011;67260;53.130;17.982;2024-02-28T01:47:04;42.60;;;15.90;;
77012;SDS011;67260;53.130;17.982;2024-02-28T01:49:32;51.40;;;17.30;;
77012;SDS011;67260;53.130;17.982;2024-02-28T01:51:59;45.70;;;16.00;;
77012;SDS011;67260;53.130;17.982;2024-02-28T01:54:25;43.30;;;16.20;;
77012;SDS011;67260;53.130;17.982;2024-02-28T01:56:55;44.90;;;16.40;;
77012;SDS011;67260;53.130;17.982;2024-02-28T01:59:28;47.00;;;17.00;;
77012;SDS011;67260;53.130;17.982;2024-02-28T02:02:17;40.50;;;16.00;;
77012;SDS011;67260;53.130;17.982;2024-02-28T02:04:44;40.70;;;15.80;;
77012;SDS011;67260;53.130;17.982;2024-02-28T02:07:35;41.40;;;15.40;;
77012;SDS011;67260;53.130;17.982;2024-02-28T02:13:21;36.70;;;15.10;;
77012;SDS011;67260;53.130;17.982;2024-02-28T02:18:55;34.20;;;13.40;;
77012;SDS011;67260;53.130;17.982;2024-02-28T02:26:02;38.30;;;14.50;;
77012;SDS011;67260;53.130;17.982;2024-02-28T02:28:38;40.90;;;15.30;;
77012;SDS011;67260;53.130;17.982;2024-02-28T02:31:14;38.90;;;13.90;;
77012;SDS011;67260;53.130;17.982;2024-02-28T02:43:08;40.00;;;14.30;;
77012;SDS011;67260;53.130;17.982;2024-02-28T02:48:31;36.60;;;13.40;;
77012;SDS011;67260;53.130;17.982;2024-02-28T02:51:29;39.70;;;13.60;;
77012;SDS011;67260;53.130;17.982;2024-02-28T02:57:36;39.80;;;13.60;;
77012;SDS011;67260;53.130;17.982;2024-02-28T03:00:17;36.10;;;12.50;;
77012;SDS011;67260;53.130;17.982;2024-02-28T03:02:46;36.20;;;13.20;;
77012;SDS011;67260;53.130;17.982;2024-02-28T03:05:42;39.60;;;14.50;;
77012;SDS011;67260;53.130;17.982;2024-02-28T03:08:09;36.50;;;13.50;;
77012;SDS011;67260;53.130;17.982;2024-02-28T03:10:39;41.60;;;14.40;;
77012;SDS011;67260;53.130;17.982;2024-02-28T03:13:21;33.90;;;12.70;;
77012;SDS011;67260;53.130;17.982;2024-02-28T03:15:51;36.90;;;12.20;;
77012;SDS011;67260;53.130;17.982;2024-02-28T03:18:21;36.40;;;11.70;;
77012;SDS011;67260;53.130;17.982;2024-02-28T03:28:47;36.30;;;12.10;;
77012;SDS011;67260;53.130;17.982;2024-02-28T03:41:29;33.20;;;12.70;;
77012;SDS011;67260;53.130;17.982;2024-02-28T03:44:10;32.80;;;11.90;;
77012;SDS011;67260;53.130;17.982;2024-02-28T04:10:45;34.50;;;12.40;;
77012;SDS011;67260;53.130;17.982;2024-02-28T04:13:12;32.00;;;12.00;;
77012;SDS011;67260;53.130;17.982;2024-02-28T04:15:52;32.40;;;11.90;;
77012;SDS011;67260;53.130;17.982;2024-02-28T04:18:19;30.30;;;11.20;;
77012;SDS011;67260;53.130;17.982;2024-02-28T04:20:48;32.40;;;11.80;;
77012;SDS011;67260;53.130;17.982;2024-02-28T04:23:16;37.10;;;12.40;;
77012;SDS011;67260;53.130;17.982;2024-02-28T04:25:46;34.00;;;12.10;;
77012;SDS011;67260;53.130;17.982;2024-02-28T04:37:37;33.60;;;11.70;;
77012;SDS011;67260;53.130;17.982;2024-02-28T04:40:04;30.50;;;12.20;;
77012;SDS011;67260;53.130;17.982;2024-02-28T04:42:53;32.10;;;12.10;;
77012;SDS011;67260;53.130;17.982;2024-02-28T04:45:25;32.20;;;12.30;;
77012;SDS011;67260;53.130;17.982;2024-02-28T04:54:18;36.00;;;12.40;;
77012;SDS011;67260;53.130;17.982;2024-02-28T04:56:58;32.80;;;12.30;;
77012;SDS011;67260;53.130;17.982;2024-02-28T04:59:24;31.70;;;11.60;;
77012;SDS011;67260;53.130;17.982;2024-02-28T05:02:07;35.80;;;12.50;;
77012;SDS011;67260;53.130;17.982;2024-02-28T05:04:40;34.90;;;12.50;;
77012;SDS011;67260;53.130;17.982;2024-02-28T05:07:22;33.00;;;12.20;;
77012;SDS011;67260;53.130;17.982;2024-02-28T05:12:41;31.50;;;12.30;;
77012;SDS011;67260;53.130;17.982;2024-02-28T05:15:07;35.60;;;12.70;;
77012;SDS011;67260;53.130;17.982;2024-02-28T05:21:18;32.40;;;11.80;;
77012;SDS011;67260;53.130;17.982;2024-02-28T05:23:58;29.40;;;12.80;;
77012;SDS011;67260;53.130;17.982;2024-02-28T05:26:36;30.00;;;11.60;;
77012;SDS011;67260;53.130;17.982;2024-02-28T05:35:33;33.30;;;12.30;;
77012;SDS011;67260;53.130;17.982;2024-02-28T05:38:06;33.30;;;12.20;;
77012;SDS011;67260;53.130;17.982;2024-02-28T05:44:01;34.00;;;11.70;;
77012;SDS011;67260;53.130;17.982;2024-02-28T05:49:57;34.50;;;12.00;;
77012;SDS011;67260;53.130;17.982;2024-02-28T05:52:30;31.00;;;12.10;;
77012;SDS011;67260;53.130;17.982;2024-02-28T05:55:00;33.20;;;13.10;;
77012;SDS011;67260;53.130;17.982;2024-02-28T05:58:25;38.90;;;13.30;;
77012;SDS011;67260;53.130;17.982;2024-02-28T06:07:44;37.90;;;13.30;;
77012;SDS011;67260;53.130;17.982;2024-02-28T06:10:10;36.10;;;13.00;;
77012;SDS011;67260;53.130;17.982;2024-02-28T06:16:53;37.30;;;15.00;;
77012;SDS011;67260;53.130;17.982;2024-02-28T06:19:20;34.70;;;14.10;;
77012;SDS011;67260;53.130;17.982;2024-02-28T06:22:02;36.30;;;14.00;;
77012;SDS011;67260;53.130;17.982;2024-02-28T06:24:28;31.30;;;13.30;;
77012;SDS011;67260;53.130;17.982;2024-02-28T06:27:15;28.80;;;12.70;;
77012;SDS011;67260;53.130;17.982;2024-02-28T06:29:45;31.30;;;12.50;;
77012;SDS011;67260;53.130;17.982;2024-02-28T06:32:23;31.70;;;12.80;;
77012;SDS011;67260;53.130;17.982;2024-02-28T06:34:50;32.90;;;13.30;;
77012;SDS011;67260;53.130;17.982;2024-02-28T06:37:29;28.20;;;12.10;;
77012;SDS011;67260;53.130;17.982;2024-02-28T06:39:57;34.00;;;13.20;;
77012;SDS011;67260;53.130;17.982;2024-02-28T06:49:13;37.70;;;13.90;;
77012;SDS011;67260;53.130;17.982;2024-02-28T06:56:34;30.20;;;12.20;;
77012;SDS011;67260;53.130;17.982;2024-02-28T06:59:16;31.50;;;12.90;;
77012;SDS011;67260;53.130;17.982;2024-02-28T07:01:42;31.30;;;12.50;;
77012;SDS011;67260;53.130;17.982;2024-02-28T07:04:08;29.50;;;12.10;;
77012;SDS011;67260;53.130;17.982;2024-02-28T07:06:34;31.80;;;11.90;;
77012;SDS011;67260;53.130;17.982;2024-02-28T07:09:01;30.90;;;12.10;;
77012;SDS011;67260;53.130;17.982;2024-02-28T07:11:27;30.50;;;12.50;;
77012;SDS011;67260;53.130;17.982;2024-02-28T07:13:53;30.40;;;11.50;;
77012;SDS011;67260;53.130;17.982;2024-02-28T07:16:19;27.80;;;11.40;;
77012;SDS011;67260;53.130;17.982;2024-02-28T07:18:45;27.70;;;11.20;;
77012;SDS011;67260;53.130;17.982;2024-02-28T07:21:12;29.10;;;12.10;;
77012;SDS011;67260;53.130;17.982;2024-02-28T07:23:40;28.70;;;12.00;;
77012;SDS011;67260;53.130;17.982;2024-02-28T07:26:08;31.20;;;12.90;;
77012;SDS011;67260;53.130;17.982;2024-02-28T07:46:57;24.50;;;11.30;;
77012;SDS011;67260;53.130;17.982;2024-02-28T07:53:50;24.10;;;10.40;;
77012;SDS011;67260;53.130;17.982;2024-02-28T07:57:28;22.80;;;10.70;;
77012;SDS011;67260;53.130;17.982;2024-02-28T08:00:58;24.10;;;10.50;;
77012;SDS011;67260;53.130;17.982;2024-02-28T08:03:54;21.60;;;10.80;;
77012;SDS011;67260;53.130;17.982;2024-02-28T08:07:48;21.90;;;11.10;;
77012;SDS011;67260;53.130;17.982;2024-02-28T08:10:49;22.20;;;10.90;;
77012;SDS011;67260;53.130;17.982;2024-02-28T08:17:39;22.10;;;11.00;;
77012;SDS011;67260;53.130;17.982;2024-02-28T08:20:26;23.40;;;11.10;;
77012;SDS011;67260;53.130;17.982;2024-02-28T08:24:02;25.20;;;12.30;;
77012;SDS011;67260;53.130;17.982;2024-02-28T08:26:31;23.30;;;11.00;;
77012;SDS011;67260;53.130;17.982;2024-02-28T08:29:00;24.90;;;12.00;;
77012;SDS011;67260;53.130;17.982;2024-02-28T08:31:26;24.60;;;11.10;;
77012;SDS011;67260;53.130;17.982;2024-02-28T08:36:43;24.80;;;12.10;;
77012;SDS011;67260;53.130;17.982;2024-02-28T08:39:10;22.80;;;11.10;;
77012;SDS011;67260;53.130;17.982;2024-02-28T08:41:58;20.70;;;10.30;;
77012;SDS011;67260;53.130;17.982;2024-02-28T08:45:10;19.70;;;10.20;;
77012;SDS011;67260;53.130;17.982;2024-02-28T08:48:36;17.60;;;9.40;;
77012;SDS011;67260;53.130;17.982;2024-02-28T08:51:11;18.70;;;9.90;;
77012;SDS011;67260;53.130;17.982;2024-02-28T08:53:52;18.30;;;9.40;;
77012;SDS011;67260;53.130;17.982;2024-02-28T08:56:22;19.90;;;9.80;;
77012;SDS011;67260;53.130;17.982;2024-02-28T08:58:56;19.90;;;10.50;;
77012;SDS011;67260;53.130;17.982;2024-02-28T09:01:22;20.60;;;10.00;;
77012;SDS011;67260;53.130;17.982;2024-02-28T09:04:01;20.40;;;10.60;;
77012;SDS011;67260;53.130;17.982;2024-02-28T09:09:23;21.20;;;10.20;;
77012;SDS011;67260;53.130;17.982;2024-02-28T09:11:59;21.60;;;9.90;;
77012;SDS011;67260;53.130;17.982;2024-02-28T09:14:33;22.30;;;10.40;;
77012;SDS011;67260;53.130;17.982;2024-02-28T09:16:59;19.80;;;10.40;;
77012;SDS011;67260;53.130;17.982;2024-02-28T09:19:30;22.60;;;11.00;;
77012;SDS011;67260;53.130;17.982;2024-02-28T09:21:58;21.30;;;11.00;;
77012;SDS011;67260;53.130;17.982;2024-02-28T09:24:25;22.10;;;10.80;;
77012;SDS011;67260;53.130;17.982;2024-02-28T09:26:54;32.90;;;16.40;;
77012;SDS011;67260;53.130;17.982;2024-02-28T09:29:21;34.50;;;17.60;;
77012;SDS011;67260;53.130;17.982;2024-02-28T09:31:51;30.90;;;15.10;;
77012;SDS011;67260;53.130;17.982;2024-02-28T09:34:17;28.30;;;12.90;;
77012;SDS011;67260;53.130;17.982;2024-02-28T09:36:56;24.70;;;11.40;;
77012;SDS011;67260;53.130;17.982;2024-02-28T09:39:53;22.20;;;10.30;;
77012;SDS011;67260;53.130;17.982;2024-02-28T09:42:41;22.00;;;11.10;;
77012;SDS011;67260;53.130;17.982;2024-02-28T09:45:24;22.70;;;11.10;;
77012;SDS011;67260;53.130;17.982;2024-02-28T09:50:59;22.90;;;11.30;;
77012;SDS011;67260;53.130;17.982;2024-02-28T09:53:28;25.80;;;11.80;;
77012;SDS011;67260;53.130;17.982;2024-02-28T09:55:57;22.40;;;11.00;;
77012;SDS011;67260;53.130;17.982;2024-02-28T09:58:27;22.90;;;9.90;;
77012;SDS011;67260;53.130;17.982;2024-02-28T10:01:08;23.80;;;10.10;;
77012;SDS011;67260;53.130;17.982;2024-02-28T10:03:44;23.20;;;10.30;;
77012;SDS011;67260;53.130;17.982;2024-02-28T10:06:33;22.10;;;10.70;;
77012;SDS011;67260;53.130;17.982;2024-02-28T10:08:59;25.80;;;11.80;;
77012;SDS011;67260;53.130;17.982;2024-02-28T10:11:26;27.00;;;11.30;;
77012;SDS011;67260;53.130;17.982;2024-02-28T10:14:06;40.40;;;12.70;;
77012;SDS011;67260;53.130;17.982;2024-02-28T10:16:33;37.40;;;12.50;;
77012;SDS011;67260;53.130;17.982;2024-02-28T10:19:02;32.30;;;12.60;;
77012;SDS011;67260;53.130;17.982;2024-02-28T10:21:43;30.50;;;11.20;;
77012;SDS011;67260;53.130;17.982;2024-02-28T10:24:12;28.50;;;10.70;;
77012;SDS011;67260;53.130;17.982;2024-02-28T10:26:46;22.90;;;10.50;;
77012;SDS011;67260;53.130;17.982;2024-02-28T10:29:32;21.30;;;10.10;;
77012;SDS011;67260;53.130;17.982;2024-02-28T10:32:04;21.00;;;10.00;;
77012;SDS011;67260;53.130;17.982;2024-02-28T10:34:42;24.40;;;11.10;;
77012;SDS011;67260;53.130;17.982;2024-02-28T10:40:32;22.20;;;9.80;;
77012;SDS011;67260;53.130;17.982;2024-02-28T10:42:58;18.80;;;9.70;;
77012;SDS011;67260;53.130;17.982;2024-02-28T10:45:27;23.10;;;10.70;;
77012;SDS011;67260;53.130;17.982;2024-02-28T10:47:57;23.60;;;11.10;;
77012;SDS011;67260;53.130;17.982;2024-02-28T10:50:23;20.00;;;10.30;;
77012;SDS011;67260;53.130;17.982;2024-02-28T10:52:49;21.50;;;10.70;;
77012;SDS011;67260;53.130;17.982;2024-02-28T10:55:21;20.90;;;10.20;;
77012;SDS011;67260;53.130;17.982;2024-02-28T10:58:08;20.30;;;9.30;;
77012;SDS011;67260;53.130;17.982;2024-02-28T11:04:12;18.00;;;9.50;;
77012;SDS011;67260;53.130;17.982;2024-02-28T11:13:30;18.40;;;9.90;;
77012;SDS011;67260;53.130;17.982;2024-02-28T11:16:17;19.40;;;10.60;;
77012;SDS011;67260;53.130;17.982;2024-02-28T11:19:27;19.10;;;10.30;;
77012;SDS011;67260;53.130;17.982;2024-02-28T11:21:59;23.50;;;10.50;;
77012;SDS011;67260;53.130;17.982;2024-02-28T11:40:42;20.20;;;11.00;;
77012;SDS011;67260;53.130;17.982;2024-02-28T11:43:37;18.90;;;9.40;;
77012;SDS011;67260;53.130;17.982;2024-02-28T11:46:09;21.40;;;11.70;;
77012;SDS011;67260;53.130;17.982;2024-02-28T11:48:36;19.70;;;10.50;;
77012;SDS011;67260;53.130;17.982;2024-02-28T11:51:05;20.20;;;11.20;;
77012;SDS011;67260;53.130;17.982;2024-02-28T11:53:33;20.80;;;11.90;;
77012;SDS011;67260;53.130;17.982;2024-02-28T11:56:17;21.50;;;11.20;;
77012;SDS011;67260;53.130;17.982;2024-02-28T11:59:12;20.10;;;10.30;;
77012;SDS011;67260;53.130;17.982;2024-02-28T12:01:40;20.00;;;10.70;;
77012;SDS011;67260;53.130;17.982;2024-02-28T12:04:09;20.30;;;10.50;;
77012;SDS011;67260;53.130;17.982;2024-02-28T12:06:40;23.60;;;10.80;;
77012;SDS011;67260;53.130;17.982;2024-02-28T12:09:06;20.10;;;10.50;;
77012;SDS011;67260;53.130;17.982;2024-02-28T12:11:42;42.30;;;16.70;;
77012;SDS011;67260;53.130;17.982;2024-02-28T12:14:14;34.80;;;14.80;;
77012;SDS011;67260;53.130;17.982;2024-02-28T12:16:41;26.20;;;12.10;;
77012;SDS011;67260;53.130;17.982;2024-02-28T12:19:13;28.30;;;12.60;;
77012;SDS011;67260;53.130;17.982;2024-02-28T12:21:47;26.80;;;12.10;;
77012;SDS011;67260;53.130;17.982;2024-02-28T12:24:13;19.40;;;10.50;;
77012;SDS011;67260;53.130;17.982;2024-02-28T12:26:39;21.10;;;10.90;;
77012;SDS011;67260;53.130;17.982;2024-02-28T12:29:09;22.80;;;12.00;;
77012;SDS011;67260;53.130;17.982;2024-02-28T12:31:39;20.00;;;10.80;;
77012;SDS011;67260;53.130;17.982;2024-02-28T12:34:05;18.20;;;9.90;;
77012;SDS011;67260;53.130;17.982;2024-02-28T12:36:34;24.90;;;11.20;;
77012;SDS011;67260;53.130;17.982;2024-02-28T12:39:00;29.50;;;11.90;;
77012;SDS011;67260;53.130;17.982;2024-02-28T12:41:26;25.30;;;11.40;;
77012;SDS011;67260;53.130;17.982;2024-02-28T12:43:53;25.30;;;13.10;;
77012;SDS011;67260;53.130;17.982;2024-02-28T12:46:20;28.30;;;13.00;;
77012;SDS011;67260;53.130;17.982;2024-02-28T12:48:46;37.10;;;13.70;;
77012;SDS011;67260;53.130;17.982;2024-02-28T12:54:08;26.80;;;13.20;;
77012;SDS011;67260;53.130;17.982;2024-02-28T12:59:09;26.10;;;12.50;;
77012;SDS011;67260;53.130;17.982;2024-02-28T13:01:46;29.40;;;13.20;;
77012;SDS011;67260;53.130;17.982;2024-02-28T13:04:49;26.70;;;13.00;;
77012;SDS011;67260;53.130;17.982;2024-02-28T13:07:39;25.30;;;11.90;;
77012;SDS011;67260;53.130;17.982;2024-02-28T13:10:15;26.70;;;12.70;;
77012;SDS011;67260;53.130;17.982;2024-02-28T13:15:08;36.70;;;12.60;;
77012;SDS011;67260;53.130;17.982;2024-02-28T13:17:38;34.00;;;13.20;;
77012;SDS011;67260;53.130;17.982;2024-02-28T13:20:16;27.40;;;12.30;;
77012;SDS011;67260;53.130;17.982;2024-02-28T13:25:34;29.30;;;15.40;;
77012;SDS011;67260;53.130;17.982;2024-02-28T13:28:02;32.60;;;15.40;;
77012;SDS011;67260;53.130;17.982;2024-02-28T13:30:29;29.10;;;14.50;;
77012;SDS011;67260;53.130;17.982;2024-02-28T13:32:55;26.00;;;12.70;;
77012;SDS011;67260;53.130;17.982;2024-02-28T13:35:23;25.50;;;13.20;;
77012;SDS011;67260;53.130;17.982;2024-02-28T13:37:49;28.60;;;14.80;;
77012;SDS011;67260;53.130;17.982;2024-02-28T13:40:17;28.10;;;13.60;;
77012;SDS011;67260;53.130;17.982;2024-02-28T13:42:47;26.30;;;12.70;;
77012;SDS011;67260;53.130;17.982;2024-02-28T13:45:29;27.00;;;12.90;;
77012;SDS011;67260;53.130;17.982;2024-02-28T13:47:56;26.70;;;13.20;;
77012;SDS011;67260;53.130;17.982;2024-02-28T13:50:24;25.00;;;11.80;;
77012;SDS011;67260;53.130;17.982;2024-02-28T13:52:57;25.40;;;12.30;;
77012;SDS011;67260;53.130;17.982;2024-02-28T13:55:26;29.40;;;13.10;;
77012;SDS011;67260;53.130;17.982;2024-02-28T14:00:45;22.50;;;11.50;;
77012;SDS011;67260;53.130;17.982;2024-02-28T14:03:14;23.40;;;10.80;;
77012;SDS011;67260;53.130;17.982;2024-02-28T14:05:40;30.50;;;12.70;;
77012;SDS011;67260;53.130;17.982;2024-02-28T14:08:07;33.80;;;15.10;;
77012;SDS011;67260;53.130;17.982;2024-02-28T14:10:34;33.30;;;14.80;;
77012;SDS011;67260;53.130;17.982;2024-02-28T14:13:00;30.10;;;14.10;;
77012;SDS011;67260;53.130;17.982;2024-02-28T14:17:56;27.50;;;13.10;;
77012;SDS011;67260;53.130;17.982;2024-02-28T14:20:37;32.80;;;13.20;;
77012;SDS011;67260;53.130;17.982;2024-02-28T14:23:04;25.50;;;13.00;;
77012;SDS011;67260;53.130;17.982;2024-02-28T14:25:30;28.70;;;12.80;;
77012;SDS011;67260;53.130;17.982;2024-02-28T14:30:23;30.90;;;14.40;;
77012;SDS011;67260;53.130;17.982;2024-02-28T14:32:49;29.30;;;13.20;;
77012;SDS011;67260;53.130;17.982;2024-02-28T14:35:16;30.60;;;13.40;;
77012;SDS011;67260;53.130;17.982;2024-02-28T14:37:42;28.00;;;13.60;;
77012;SDS011;67260;53.130;17.982;2024-02-28T14:40:09;29.20;;;14.00;;
77012;SDS011;67260;53.130;17.982;2024-02-28T14:47:33;31.60;;;14.90;;
77012;SDS011;67260;53.130;17.982;2024-02-28T14:50:02;31.30;;;13.80;;
77012;SDS011;67260;53.130;17.982;2024-02-28T14:52:29;33.10;;;15.70;;
77012;SDS011;67260;53.130;17.982;2024-02-28T14:54:55;27.20;;;13.50;;
77012;SDS011;67260;53.130;17.982;2024-02-28T14:57:22;26.50;;;13.70;;
77012;SDS011;67260;53.130;17.982;2024-02-28T14:59:48;30.80;;;14.30;;
77012;SDS011;67260;53.130;17.982;2024-02-28T15:02:17;26.10;;;13.50;;
77012;SDS011;67260;53.130;17.982;2024-02-28T15:07:40;23.90;;;11.80;;
77012;SDS011;67260;53.130;17.982;2024-02-28T15:16:26;24.40;;;12.20;;
77012;SDS011;67260;53.130;17.982;2024-02-28T15:18:53;25.70;;;12.60;;
77012;SDS011;67260;53.130;17.982;2024-02-28T15:21:45;42.20;;;21.00;;
77012;SDS011;67260;53.130;17.982;2024-02-28T15:27:31;32.90;;;14.40;;
77012;SDS011;67260;53.130;17.982;2024-02-28T15:40:55;33.10;;;15.70;;
77012;SDS011;67260;53.130;17.982;2024-02-28T15:43:23;34.90;;;17.30;;
77012;SDS011;67260;53.130;17.982;2024-02-28T15:45:49;39.00;;;17.80;;
77012;SDS011;67260;53.130;17.982;2024-02-28T15:48:30;35.90;;;16.60;;
77012;SDS011;67260;53.130;17.982;2024-02-28T15:50:57;30.50;;;14.10;;
77012;SDS011;67260;53.130;17.982;2024-02-28T15:53:23;34.50;;;14.80;;
77012;SDS011;67260;53.130;17.982;2024-02-28T15:55:52;35.50;;;15.70;;
77012;SDS011;67260;53.130;17.982;2024-02-28T15:58:21;34.00;;;14.90;;
77012;SDS011;67260;53.130;17.982;2024-02-28T16:00:50;36.10;;;15.70;;
77012;SDS011;67260;53.130;17.982;2024-02-28T16:03:20;32.70;;;14.80;;
77012;SDS011;67260;53.130;17.982;2024-02-28T16:05:52;38.50;;;17.50;;
77012;SDS011;67260;53.130;17.982;2024-02-28T16:08:20;51.50;;;22.00;;
77012;SDS011;67260;53.130;17.982;2024-02-28T16:10:46;54.90;;;22.50;;
77012;SDS011;67260;53.130;17.982;2024-02-28T16:13:14;61.80;;;26.80;;
77012;SDS011;67260;53.130;17.982;2024-02-28T16:20:31;36.80;;;16.10;;
77012;SDS011;67260;53.130;17.982;2024-02-28T16:34:38;52.30;;;23.80;;
77012;SDS011;67260;53.130;17.982;2024-02-28T16:44:59;23.90;;;12.00;;
77012;SDS011;67260;53.130;17.982;2024-02-28T16:47:57;20.30;;;10.50;;
77012;SDS011;67260;53.130;17.982;2024-02-28T16:50:27;18.50;;;10.50;;
77012;SDS011;67260;53.130;17.982;2024-02-28T17:18:37;38.70;;;17.60;;
77012;SDS011;67260;53.130;17.982;2024-02-28T17:24:42;32.70;;;16.90;;
77012;SDS011;67260;53.130;17.982;2024-02-28T17:27:12;30.80;;;15.10;;
77012;SDS011;67260;53.130;17.982;2024-02-28T17:29:39;33.60;;;17.10;;
77012;SDS011;67260;53.130;17.982;2024-02-28T17:32:05;37.40;;;19.00;;
77012;SDS011;67260;53.130;17.982;2024-02-28T17:34:39;63.30;;;31.70;;
77012;SDS011;67260;53.130;17.982;2024-02-28T17:37:10;57.40;;;30.80;;
77012;SDS011;67260;53.130;17.982;2024-02-28T17:39:41;48.50;;;25.90;;
77012;SDS011;67260;53.130;17.982;2024-02-28T17:42:08;54.00;;;28.70;;
77012;SDS011;67260;53.130;17.982;2024-02-28T17:44:35;52.70;;;25.70;;
77012;SDS011;67260;53.130;17.982;2024-02-28T17:47:12;50.80;;;23.40;;
77012;SDS011;67260;53.130;17.982;2024-02-28T17:49:56;48.20;;;23.60;;
77012;SDS011;67260;53.130;17.982;2024-02-28T17:52:24;45.50;;;21.10;;
77012;SDS011;67260;53.130;17.982;2024-02-28T17:54:56;39.00;;;19.30;;
77012;SDS011;67260;53.130;17.982;2024-02-28T18:08:23;28.80;;;14.70;;
77012;SDS011;67260;53.130;17.982;2024-02-28T18:14:27;68.30;;;33.10;;
77012;SDS011;67260;53.130;17.982;2024-02-28T18:17:14;50.60;;;24.60;;
77012;SDS011;67260;53.130;17.982;2024-02-28T18:20:03;62.30;;;33.20;;
77012;SDS011;67260;53.130;17.982;2024-02-28T18:22:40;48.30;;;26.90;;
77012;SDS011;67260;53.130;17.982;2024-02-28T18:58:39;21.90;;;10.00;;
77012;SDS011;67260;53.130;17.982;2024-02-28T19:01:21;23.90;;;11.40;;
77012;SDS011;67260;53.130;17.982;2024-02-28T19:10:06;21.40;;;10.40;;
77012;SDS011;67260;53.130;17.982;2024-02-28T19:20:00;21.30;;;11.00;;
77012;SDS011;67260;53.130;17.982;2024-02-28T19:22:41;22.80;;;11.00;;
77012;SDS011;67260;53.130;17.982;2024-02-28T19:28:06;24.10;;;12.00;;
77012;SDS011;67260;53.130;17.982;2024-02-28T19:30:33;22.40;;;11.60;;
77012;SDS011;67260;53.130;17.982;2024-02-28T19:36:16;19.60;;;10.20;;
77012;SDS011;67260;53.130;17.982;2024-02-28T19:38:42;21.80;;;11.00;;
77012;SDS011;67260;53.130;17.982;2024-02-28T19:41:09;21.60;;;10.90;;
77012;SDS011;67260;53.130;17.982;2024-02-28T19:43:36;22.00;;;11.00;;
77012;SDS011;67260;53.130;17.982;2024-02-28T19:46:02;20.40;;;11.00;;
77012;SDS011;67260;53.130;17.982;2024-02-28T19:48:29;21.60;;;11.10;;
77012;SDS011;67260;53.130;17.982;2024-02-28T19:50:55;18.90;;;9.80;;
77012;SDS011;67260;53.130;17.982;2024-02-28T19:53:21;22.10;;;11.90;;
77012;SDS011;67260;53.130;17.982;2024-02-28T19:55:51;21.20;;;11.20;;
77012;SDS011;67260;53.130;17.982;2024-02-28T19:58:23;21.00;;;11.20;;
77012;SDS011;67260;53.130;17.982;2024-02-28T20:00:52;23.30;;;11.20;;
77012;SDS011;67260;53.130;17.982;2024-02-28T20:03:21;22.20;;;11.10;;
77012;SDS011;67260;53.130;17.982;2024-02-28T20:06:05;17.40;;;9.60;;
77012;SDS011;67260;53.130;17.982;2024-02-28T20:08:34;19.60;;;10.20;;
77012;SDS011;67260;53.130;17.982;2024-02-28T20:13:42;18.80;;;9.00;;
77012;SDS011;67260;53.130;17.982;2024-02-28T20:16:17;18.00;;;9.50;;
77012;SDS011;67260;53.130;17.982;2024-02-28T20:18:47;20.10;;;10.00;;
77012;SDS011;67260;53.130;17.982;2024-02-28T20:21:15;17.40;;;8.40;;
77012;SDS011;67260;53.130;17.982;2024-02-28T20:23:42;18.70;;;8.90;;
77012;SDS011;67260;53.130;17.982;2024-02-28T20:26:09;16.50;;;10.00;;
77012;SDS011;67260;53.130;17.982;2024-02-28T20:28:35;17.00;;;8.90;;
77012;SDS011;67260;53.130;17.982;2024-02-28T20:31:04;22.00;;;10.30;;
77012;SDS011;67260;53.130;17.982;2024-02-28T20:33:43;17.70;;;8.80;;
77012;SDS011;67260;53.130;17.982;2024-02-28T20:36:27;18.00;;;8.80;;
77012;SDS011;67260;53.130;17.982;2024-02-28T20:51:04;17.90;;;8.80;;
77012;SDS011;67260;53.130;17.982;2024-02-28T20:54:25;17.70;;;8.80;;
77012;SDS011;67260;53.130;17.982;2024-02-28T21:00:32;17.80;;;8.90;;
77012;SDS011;67260;53.130;17.982;2024-02-28T21:03:15;15.20;;;8.80;;
77012;SDS011;67260;53.130;17.982;2024-02-28T21:09:22;17.70;;;8.80;;
77012;SDS011;67260;53.130;17.982;2024-02-28T21:12:01;18.60;;;9.30;;
77012;SDS011;67260;53.130;17.982;2024-02-28T21:14:28;18.30;;;9.10;;
77012;SDS011;67260;53.130;17.982;2024-02-28T21:16:54;20.60;;;9.70;;
77012;SDS011;67260;53.130;17.982;2024-02-28T21:19:20;18.70;;;9.00;;
77012;SDS011;67260;53.130;17.982;2024-02-28T21:21:47;16.80;;;9.10;;
77012;SDS011;67260;53.130;17.982;2024-02-28T21:27:27;21.20;;;9.50;;